sensor_id;sensor_type;location;lat;lon;timestamp;temperature;humidity
2012;DHT22;1009;51.436;6.972;2022-12-05T00:02:20;3.30;99.90
2012;DHT22;1009;51.436;6.972;2022-12-05T00:04:47;3.30;99.90
2012;DHT22;1009;51.436;6.972;2022-12-05T00:07:13;3.40;99.90
2012;DHT22;1009;51.436;6.972;2022-12-05T00:09:40;3.30;99.90
2012;DHT22;1009;51.436;6.972;2022-12-05T00:12:07;3.30;99.90
2012;DHT22;1009;51.436;6.972;2022-12-05T00:14:34;3.40;99.90
2012;DHT22;1009;51.436;6.972;2022-12-05T00:17:00;3.40;99.90
2012;DHT22;1009;51.436;6.972;2022-12-05T00:19:28;3.40;99.90
2012;DHT22;1009;51.436;6.972;2022-12-05T00:21:55;3.40;99.90
2012;DHT22;1009;51.436;6.972;2022-12-05T00:24:22;3.40;99.90
2012;DHT22;1009;51.436;6.972;2022-12-05T00:26:49;3.40;99.90
2012;DHT22;1009;51.436;6.972;2022-12-05T00:29:18;3.30;99.90
2012;DHT22;1009;51.436;6.972;2022-12-05T00:31:45;3.30;99.90
2012;DHT22;1009;51.436;6.972;2022-12-05T00:34:12;3.30;99.90
2012;DHT22;1009;51.436;6.972;2022-12-05T00:36:40;3.30;99.90
2012;DHT22;1009;51.436;6.972;2022-12-05T00:39:10;3.40;99.90
2012;DHT22;1009;51.436;6.972;2022-12-05T00:41:38;3.40;99.90
2012;DHT22;1009;51.436;6.972;2022-12-05T00:44:05;3.40;99.90
2012;DHT22;1009;51.436;6.972;2022-12-05T00:46:33;3.40;99.90
2012;DHT22;1009;51.436;6.972;2022-12-05T00:49:02;3.50;99.90
2012;DHT22;1009;51.436;6.972;2022-12-05T00:51:30;3.60;99.90
2012;DHT22;1009;51.436;6.972;2022-12-05T00:54:00;3.60;99.90
2012;DHT22;1009;51.436;6.972;2022-12-05T00:56:29;3.70;99.90
2012;DHT22;1009;51.436;6.972;2022-12-05T00:58:57;3.60;99.90
2012;DHT22;1009;51.436;6.972;2022-12-05T01:01:26;3.60;99.90
2012;DHT22;1009;51.436;6.972;2022-12-05T01:03:56;3.50;99.90
2012;DHT22;1009;51.436;6.972;2022-12-05T01:06:24;3.60;99.90
2012;DHT22;1009;51.436;6.972;2022-12-05T01:08:52;3.60;99.90
2012;DHT22;1009;51.436;6.972;2022-12-05T01:11:20;3.50;99.90
2012;DHT22;1009;51.436;6.972;2022-12-05T01:13:47;3.50;99.90
2012;DHT22;1009;51.436;6.972;2022-12-05T01:16:15;3.50;99.90
2012;DHT22;1009;51.436;6.972;2022-12-05T01:18:42;3.50;99.90
2012;DHT22;1009;51.436;6.972;2022-12-05T01:21:09;3.50;99.90
2012;DHT22;1009;51.436;6.972;2022-12-05T01:23:36;3.50;99.90
2012;DHT22;1009;51.436;6.972;2022-12-05T01:26:08;3.50;99.90
2012;DHT22;1009;51.436;6.972;2022-12-05T01:28:36;3.60;99.90
2012;DHT22;1009;51.436;6.972;2022-12-05T01:31:05;3.50;99.90
2012;DHT22;1009;51.436;6.972;2022-12-05T01:33:33;3.50;99.90
2012;DHT22;1009;51.436;6.972;2022-12-05T01:36:00;3.60;99.90
2012;DHT22;1009;51.436;6.972;2022-12-05T01:38:27;3.60;99.90
2012;DHT22;1009;51.436;6.972;2022-12-05T01:41:01;3.60;99.90
2012;DHT22;1009;51.436;6.972;2022-12-05T01:43:28;3.70;99.90
2012;DHT22;1009;51.436;6.972;2022-12-05T01:45:57;3.70;99.90
2012;DHT22;1009;51.436;6.972;2022-12-05T01:48:26;3.60;99.90
2012;DHT22;1009;51.436;6.972;2022-12-05T01:50:54;3.60;99.90
2012;DHT22;1009;51.436;6.972;2022-12-05T01:53:21;3.50;99.90
2012;DHT22;1009;51.436;6.972;2022-12-05T01:55:49;3.50;99.90
2012;DHT22;1009;51.436;6.972;2022-12-05T01:58:17;3.50;99.90
2012;DHT22;1009;51.436;6.972;2022-12-05T02:00:45;3.50;99.90
2012;DHT22;1009;51.436;6.972;2022-12-05T02:03:16;3.60;99.90
2012;DHT22;1009;51.436;6.972;2022-12-05T02:05:46;3.60;99.90
2012;DHT22;1009;51.436;6.972;2022-12-05T02:08:15;3.50;99.90
2012;DHT22;1009;51.436;6.972;2022-12-05T02:10:44;3.60;99.90
2012;DHT22;1009;51.436;6.972;2022-12-05T02:13:23;3.60;99.90
2012;DHT22;1009;51.436;6.972;2022-12-05T02:16:00;3.60;99.90
2012;DHT22;1009;51.436;6.972;2022-12-05T02:18:41;3.60;99.90
2012;DHT22;1009;51.436;6.972;2022-12-05T02:21:38;3.50;99.90
2012;DHT22;1009;51.436;6.972;2022-12-05T02:24:32;3.60;99.90
2012;DHT22;1009;51.436;6.972;2022-12-05T02:27:20;3.50;99.90
2012;DHT22;1009;51.436;6.972;2022-12-05T02:30:02;3.50;99.90
2012;DHT22;1009;51.436;6.972;2022-12-05T02:32:45;3.50;99.90
2012;DHT22;1009;51.436;6.972;2022-12-05T02:35:26;3.50;99.90
2012;DHT22;1009;51.436;6.972;2022-12-05T02:38:02;3.50;99.90
2012;DHT22;1009;51.436;6.972;2022-12-05T02:40:40;3.60;99.90
2012;DHT22;1009;51.436;6.972;2022-12-05T02:43:14;3.60;99.90
2012;DHT22;1009;51.436;6.972;2022-12-05T02:45:47;3.60;99.90
2012;DHT22;1009;51.436;6.972;2022-12-05T02:48:16;3.60;99.90
2012;DHT22;1009;51.436;6.972;2022-12-05T02:50:46;3.60;99.90
2012;DHT22;1009;51.436;6.972;2022-12-05T02:53:15;3.60;99.90
2012;DHT22;1009;51.436;6.972;2022-12-05T02:55:43;3.70;99.90
2012;DHT22;1009;51.436;6.972;2022-12-05T02:58:15;3.70;99.90
2012;DHT22;1009;51.436;6.972;2022-12-05T03:00:47;3.60;99.90
2012;DHT22;1009;51.436;6.972;2022-12-05T03:03:17;3.70;99.90
2012;DHT22;1009;51.436;6.972;2022-12-05T03:05:49;3.60;99.90
2012;DHT22;1009;51.436;6.972;2022-12-05T03:08:22;3.70;99.90
2012;DHT22;1009;51.436;6.972;2022-12-05T03:10:51;3.60;99.90
2012;DHT22;1009;51.436;6.972;2022-12-05T03:13:22;3.60;99.90
2012;DHT22;1009;51.436;6.972;2022-12-05T03:15:53;3.50;99.90
2012;DHT22;1009;51.436;6.972;2022-12-05T03:18:24;3.40;99.90
2012;DHT22;1009;51.436;6.972;2022-12-05T03:20:55;3.40;99.90
2012;DHT22;1009;51.436;6.972;2022-12-05T03:23:25;3.40;99.90
2012;DHT22;1009;51.436;6.972;2022-12-05T03:26:04;3.50;99.90
2012;DHT22;1009;51.436;6.972;2022-12-05T03:28:42;3.60;99.90
2012;DHT22;1009;51.436;6.972;2022-12-05T03:31:20;3.60;99.90
2012;DHT22;1009;51.436;6.972;2022-12-05T03:33:55;3.60;99.90
2012;DHT22;1009;51.436;6.972;2022-12-05T03:36:28;3.60;99.90
2012;DHT22;1009;51.436;6.972;2022-12-05T03:39:02;3.60;99.90
2012;DHT22;1009;51.436;6.972;2022-12-05T03:41:33;3.70;99.90
2012;DHT22;1009;51.436;6.972;2022-12-05T03:44:06;3.80;99.90
2012;DHT22;1009;51.436;6.972;2022-12-05T03:46:39;3.70;99.90
2012;DHT22;1009;51.436;6.972;2022-12-05T03:49:11;3.70;99.90
2012;DHT22;1009;51.436;6.972;2022-12-05T03:51:42;3.70;99.90
2012;DHT22;1009;51.436;6.972;2022-12-05T03:54:15;3.80;99.90
2012;DHT22;1009;51.436;6.972;2022-12-05T03:56:46;3.70;99.90
2012;DHT22;1009;51.436;6.972;2022-12-05T03:59:19;3.60;99.90
2012;DHT22;1009;51.436;6.972;2022-12-05T04:01:50;3.60;99.90
2012;DHT22;1009;51.436;6.972;2022-12-05T04:04:21;3.60;99.90
2012;DHT22;1009;51.436;6.972;2022-12-05T04:06:52;3.60;99.90
2012;DHT22;1009;51.436;6.972;2022-12-05T04:09:23;3.60;99.90
2012;DHT22;1009;51.436;6.972;2022-12-05T04:11:55;3.70;99.90
2012;DHT22;1009;51.436;6.972;2022-12-05T04:14:27;3.70;99.90
2012;DHT22;1009;51.436;6.972;2022-12-05T04:17:00;3.60;99.90
2012;DHT22;1009;51.436;6.972;2022-12-05T04:19:35;3.60;99.90
2012;DHT22;1009;51.436;6.972;2022-12-05T04:22:21;3.50;99.90
2012;DHT22;1009;51.436;6.972;2022-12-05T04:24:54;3.50;99.90
2012;DHT22;1009;51.436;6.972;2022-12-05T04:27:45;3.50;99.90
2012;DHT22;1009;51.436;6.972;2022-12-05T04:30:16;3.50;99.90
2012;DHT22;1009;51.436;6.972;2022-12-05T04:32:49;3.60;99.90
2012;DHT22;1009;51.436;6.972;2022-12-05T04:35:23;3.60;99.90
2012;DHT22;1009;51.436;6.972;2022-12-05T04:37:54;3.60;99.90
2012;DHT22;1009;51.436;6.972;2022-12-05T04:40:28;3.60;99.90
2012;DHT22;1009;51.436;6.972;2022-12-05T04:42:56;3.60;99.90
2012;DHT22;1009;51.436;6.972;2022-12-05T04:45:25;3.70;99.90
2012;DHT22;1009;51.436;6.972;2022-12-05T04:47:56;3.70;99.90
2012;DHT22;1009;51.436;6.972;2022-12-05T04:50:26;3.80;99.90
2012;DHT22;1009;51.436;6.972;2022-12-05T04:52:57;3.70;99.90
2012;DHT22;1009;51.436;6.972;2022-12-05T04:55:25;3.60;99.90
2012;DHT22;1009;51.436;6.972;2022-12-05T04:58:00;3.60;99.90
2012;DHT22;1009;51.436;6.972;2022-12-05T05:00:30;3.70;99.90
2012;DHT22;1009;51.436;6.972;2022-12-05T05:03:03;3.70;99.90
2012;DHT22;1009;51.436;6.972;2022-12-05T05:05:31;3.70;99.90
2012;DHT22;1009;51.436;6.972;2022-12-05T05:08:00;3.60;99.90
2012;DHT22;1009;51.436;6.972;2022-12-05T05:10:32;3.80;99.90
2012;DHT22;1009;51.436;6.972;2022-12-05T05:13:01;3.70;99.90
2012;DHT22;1009;51.436;6.972;2022-12-05T05:15:27;3.70;99.90
2012;DHT22;1009;51.436;6.972;2022-12-05T05:17:54;3.70;99.90
2012;DHT22;1009;51.436;6.972;2022-12-05T05:20:22;3.70;99.90
2012;DHT22;1009;51.436;6.972;2022-12-05T05:22:50;3.70;99.90
2012;DHT22;1009;51.436;6.972;2022-12-05T05:25:17;3.60;99.90
2012;DHT22;1009;51.436;6.972;2022-12-05T05:27:47;3.50;99.90
2012;DHT22;1009;51.436;6.972;2022-12-05T05:30:15;3.60;99.90
2012;DHT22;1009;51.436;6.972;2022-12-05T05:32:42;3.50;99.90
2012;DHT22;1009;51.436;6.972;2022-12-05T05:35:09;3.40;99.90
2012;DHT22;1009;51.436;6.972;2022-12-05T05:37:40;3.40;99.90
2012;DHT22;1009;51.436;6.972;2022-12-05T05:40:08;3.50;99.90
2012;DHT22;1009;51.436;6.972;2022-12-05T05:42:36;3.50;99.90
2012;DHT22;1009;51.436;6.972;2022-12-05T05:45:08;3.50;99.90
2012;DHT22;1009;51.436;6.972;2022-12-05T05:47:35;3.60;99.90
2012;DHT22;1009;51.436;6.972;2022-12-05T05:50:02;3.50;99.90
2012;DHT22;1009;51.436;6.972;2022-12-05T05:52:31;3.50;99.90
2012;DHT22;1009;51.436;6.972;2022-12-05T05:54:59;3.60;99.90
2012;DHT22;1009;51.436;6.972;2022-12-05T05:57:26;3.60;99.90
2012;DHT22;1009;51.436;6.972;2022-12-05T05:59:53;3.70;99.90
2012;DHT22;1009;51.436;6.972;2022-12-05T06:02:19;3.70;99.90
2012;DHT22;1009;51.436;6.972;2022-12-05T06:04:46;3.50;99.90
2012;DHT22;1009;51.436;6.972;2022-12-05T06:07:13;3.50;99.90
2012;DHT22;1009;51.436;6.972;2022-12-05T06:09:39;3.60;99.90
2012;DHT22;1009;51.436;6.972;2022-12-05T06:12:08;3.50;99.90
2012;DHT22;1009;51.436;6.972;2022-12-05T06:14:34;3.60;99.90
2012;DHT22;1009;51.436;6.972;2022-12-05T06:17:01;3.50;99.90
2012;DHT22;1009;51.436;6.972;2022-12-05T06:19:28;3.50;99.90
2012;DHT22;1009;51.436;6.972;2022-12-05T06:21:55;3.50;99.90
2012;DHT22;1009;51.436;6.972;2022-12-05T06:24:21;3.50;99.90
2012;DHT22;1009;51.436;6.972;2022-12-05T06:26:48;3.50;99.90
2012;DHT22;1009;51.436;6.972;2022-12-05T06:29:16;3.50;99.90
2012;DHT22;1009;51.436;6.972;2022-12-05T06:31:43;3.50;99.90
2012;DHT22;1009;51.436;6.972;2022-12-05T06:34:09;3.50;99.90
2012;DHT22;1009;51.436;6.972;2022-12-05T06:36:37;3.40;99.90
2012;DHT22;1009;51.436;6.972;2022-12-05T06:39:11;3.40;99.90
2012;DHT22;1009;51.436;6.972;2022-12-05T06:41:40;3.50;99.90
2012;DHT22;1009;51.436;6.972;2022-12-05T06:44:08;3.50;99.90
2012;DHT22;1009;51.436;6.972;2022-12-05T06:46:36;3.50;99.90
2012;DHT22;1009;51.436;6.972;2022-12-05T06:49:03;3.40;99.90
2012;DHT22;1009;51.436;6.972;2022-12-05T06:51:30;3.50;99.90
2012;DHT22;1009;51.436;6.972;2022-12-05T06:53:56;3.50;99.90
2012;DHT22;1009;51.436;6.972;2022-12-05T06:56:23;3.50;99.90
2012;DHT22;1009;51.436;6.972;2022-12-05T06:58:50;3.50;99.90
2012;DHT22;1009;51.436;6.972;2022-12-05T07:01:19;3.60;99.90
2012;DHT22;1009;51.436;6.972;2022-12-05T07:04:11;3.50;99.90
2012;DHT22;1009;51.436;6.972;2022-12-05T07:06:39;3.40;99.90
2012;DHT22;1009;51.436;6.972;2022-12-05T07:09:06;3.50;99.90
2012;DHT22;1009;51.436;6.972;2022-12-05T07:11:33;3.40;99.90
2012;DHT22;1009;51.436;6.972;2022-12-05T07:14:00;3.50;99.90
2012;DHT22;1009;51.436;6.972;2022-12-05T07:16:27;3.50;99.90
2012;DHT22;1009;51.436;6.972;2022-12-05T07:18:54;3.40;99.90
2012;DHT22;1009;51.436;6.972;2022-12-05T07:21:22;3.50;99.90
2012;DHT22;1009;51.436;6.972;2022-12-05T07:23:49;3.50;99.90
2012;DHT22;1009;51.436;6.972;2022-12-05T07:26:18;3.50;99.90
2012;DHT22;1009;51.436;6.972;2022-12-05T07:28:46;3.60;99.90
2012;DHT22;1009;51.436;6.972;2022-12-05T07:31:15;3.50;99.90
2012;DHT22;1009;51.436;6.972;2022-12-05T07:33:42;3.50;99.90
2012;DHT22;1009;51.436;6.972;2022-12-05T07:36:11;3.50;99.90
2012;DHT22;1009;51.436;6.972;2022-12-05T07:38:40;3.40;99.90
2012;DHT22;1009;51.436;6.972;2022-12-05T07:41:08;3.40;99.90
2012;DHT22;1009;51.436;6.972;2022-12-05T07:43:36;3.40;99.90
2012;DHT22;1009;51.436;6.972;2022-12-05T07:46:03;3.30;99.90
2012;DHT22;1009;51.436;6.972;2022-12-05T07:48:30;3.20;99.90
2012;DHT22;1009;51.436;6.972;2022-12-05T07:51:00;3.30;99.90
2012;DHT22;1009;51.436;6.972;2022-12-05T07:53:28;3.30;99.90
2012;DHT22;1009;51.436;6.972;2022-12-05T07:55:57;3.20;99.90
2012;DHT22;1009;51.436;6.972;2022-12-05T07:58:24;3.20;99.90
2012;DHT22;1009;51.436;6.972;2022-12-05T08:00:51;3.20;99.90
2012;DHT22;1009;51.436;6.972;2022-12-05T08:03:17;3.20;99.90
2012;DHT22;1009;51.436;6.972;2022-12-05T08:05:44;3.20;99.90
2012;DHT22;1009;51.436;6.972;2022-12-05T08:08:11;3.20;99.90
2012;DHT22;1009;51.436;6.972;2022-12-05T08:10:37;3.10;99.90
2012;DHT22;1009;51.436;6.972;2022-12-05T08:13:05;3.10;99.90
2012;DHT22;1009;51.436;6.972;2022-12-05T08:15:33;3.10;99.90
2012;DHT22;1009;51.436;6.972;2022-12-05T08:18:00;3.10;99.90
2012;DHT22;1009;51.436;6.972;2022-12-05T08:20:27;3.10;99.90
2012;DHT22;1009;51.436;6.972;2022-12-05T08:22:54;3.10;99.90
2012;DHT22;1009;51.436;6.972;2022-12-05T08:25:21;3.10;99.90
2012;DHT22;1009;51.436;6.972;2022-12-05T08:27:48;3.10;99.90
2012;DHT22;1009;51.436;6.972;2022-12-05T08:30:16;3.10;99.90
2012;DHT22;1009;51.436;6.972;2022-12-05T08:32:43;3.00;99.90
2012;DHT22;1009;51.436;6.972;2022-12-05T08:35:10;3.00;99.90
2012;DHT22;1009;51.436;6.972;2022-12-05T08:37:36;3.00;99.90
2012;DHT22;1009;51.436;6.972;2022-12-05T08:40:04;3.00;99.90
2012;DHT22;1009;51.436;6.972;2022-12-05T08:42:31;3.10;99.90
2012;DHT22;1009;51.436;6.972;2022-12-05T08:44:58;3.10;99.90
2012;DHT22;1009;51.436;6.972;2022-12-05T08:47:26;3.20;99.90
2012;DHT22;1009;51.436;6.972;2022-12-05T08:49:52;3.20;99.90
2012;DHT22;1009;51.436;6.972;2022-12-05T08:52:19;3.20;99.90
2012;DHT22;1009;51.436;6.972;2022-12-05T08:54:47;3.10;99.90
2012;DHT22;1009;51.436;6.972;2022-12-05T08:57:14;3.10;99.90
2012;DHT22;1009;51.436;6.972;2022-12-05T08:59:40;3.10;99.90
2012;DHT22;1009;51.436;6.972;2022-12-05T09:02:07;3.10;99.90
2012;DHT22;1009;51.436;6.972;2022-12-05T09:04:35;3.10;99.90
2012;DHT22;1009;51.436;6.972;2022-12-05T09:07:02;3.10;99.90
2012;DHT22;1009;51.436;6.972;2022-12-05T09:09:29;3.00;99.90
2012;DHT22;1009;51.436;6.972;2022-12-05T09:11:57;3.00;99.90
2012;DHT22;1009;51.436;6.972;2022-12-05T09:14:24;3.00;99.90
2012;DHT22;1009;51.436;6.972;2022-12-05T09:16:57;3.00;99.90
2012;DHT22;1009;51.436;6.972;2022-12-05T09:19:25;3.10;99.90
2012;DHT22;1009;51.436;6.972;2022-12-05T09:21:54;3.10;99.90
2012;DHT22;1009;51.436;6.972;2022-12-05T09:24:21;3.10;99.90
2012;DHT22;1009;51.436;6.972;2022-12-05T09:26:48;3.00;99.90
2012;DHT22;1009;51.436;6.972;2022-12-05T09:29:15;3.10;99.90
2012;DHT22;1009;51.436;6.972;2022-12-05T09:31:41;3.10;99.90
2012;DHT22;1009;51.436;6.972;2022-12-05T09:34:08;3.00;99.90
2012;DHT22;1009;51.436;6.972;2022-12-05T09:36:37;3.10;99.90
2012;DHT22;1009;51.436;6.972;2022-12-05T09:39:06;3.20;99.90
2012;DHT22;1009;51.436;6.972;2022-12-05T09:45:01;3.10;99.90
2012;DHT22;1009;51.436;6.972;2022-12-05T09:47:33;3.20;99.90
2012;DHT22;1009;51.436;6.972;2022-12-05T09:50:12;3.20;99.90
2012;DHT22;1009;51.436;6.972;2022-12-05T09:52:42;3.20;99.90
2012;DHT22;1009;51.436;6.972;2022-12-05T09:55:13;3.20;99.90
2012;DHT22;1009;51.436;6.972;2022-12-05T09:57:44;3.20;99.90
2012;DHT22;1009;51.436;6.972;2022-12-05T10:00:13;3.10;99.90
2012;DHT22;1009;51.436;6.972;2022-12-05T10:02:49;3.10;99.90
2012;DHT22;1009;51.436;6.972;2022-12-05T10:05:22;3.20;99.90
2012;DHT22;1009;51.436;6.972;2022-12-05T10:07:55;3.20;99.90
2012;DHT22;1009;51.436;6.972;2022-12-05T10:10:33;3.20;99.90
2012;DHT22;1009;51.436;6.972;2022-12-05T10:13:13;3.10;99.90
2012;DHT22;1009;51.436;6.972;2022-12-05T10:15:43;3.20;99.90
2012;DHT22;1009;51.436;6.972;2022-12-05T10:18:18;3.30;99.90
2012;DHT22;1009;51.436;6.972;2022-12-05T10:20:51;3.30;99.90
2012;DHT22;1009;51.436;6.972;2022-12-05T10:23:22;3.20;99.90
2012;DHT22;1009;51.436;6.972;2022-12-05T10:25:58;3.30;99.90
2012;DHT22;1009;51.436;6.972;2022-12-05T10:28:31;3.40;99.90
2012;DHT22;1009;51.436;6.972;2022-12-05T10:31:03;3.20;99.90
2012;DHT22;1009;51.436;6.972;2022-12-05T10:33:36;3.20;99.90
2012;DHT22;1009;51.436;6.972;2022-12-05T10:36:09;3.10;99.90
2012;DHT22;1009;51.436;6.972;2022-12-05T10:38:36;3.10;99.90
2012;DHT22;1009;51.436;6.972;2022-12-05T10:41:06;3.10;99.90
2012;DHT22;1009;51.436;6.972;2022-12-05T10:43:34;3.20;99.90
2012;DHT22;1009;51.436;6.972;2022-12-05T10:46:03;3.20;99.90
2012;DHT22;1009;51.436;6.972;2022-12-05T10:48:30;3.30;99.90
2012;DHT22;1009;51.436;6.972;2022-12-05T10:51:00;3.30;99.90
2012;DHT22;1009;51.436;6.972;2022-12-05T10:53:28;3.30;99.90
2012;DHT22;1009;51.436;6.972;2022-12-05T10:55:57;3.30;99.90
2012;DHT22;1009;51.436;6.972;2022-12-05T10:58:27;3.30;99.90
2012;DHT22;1009;51.436;6.972;2022-12-05T11:00:55;3.20;99.90
2012;DHT22;1009;51.436;6.972;2022-12-05T11:03:27;3.20;99.90
2012;DHT22;1009;51.436;6.972;2022-12-05T11:05:57;3.30;99.90
2012;DHT22;1009;51.436;6.972;2022-12-05T11:08:25;3.30;99.90
2012;DHT22;1009;51.436;6.972;2022-12-05T11:11:03;3.30;99.90
2012;DHT22;1009;51.436;6.972;2022-12-05T11:13:33;3.30;99.90
2012;DHT22;1009;51.436;6.972;2022-12-05T11:16:00;3.30;99.90
2012;DHT22;1009;51.436;6.972;2022-12-05T11:18:29;3.30;99.90
2012;DHT22;1009;51.436;6.972;2022-12-05T11:21:08;3.30;99.90
2012;DHT22;1009;51.436;6.972;2022-12-05T11:23:35;3.30;99.90
2012;DHT22;1009;51.436;6.972;2022-12-05T11:26:02;3.30;99.90
2012;DHT22;1009;51.436;6.972;2022-12-05T11:28:32;3.30;99.90
2012;DHT22;1009;51.436;6.972;2022-12-05T11:31:01;3.30;99.90
2012;DHT22;1009;51.436;6.972;2022-12-05T11:33:29;3.30;99.90
2012;DHT22;1009;51.436;6.972;2022-12-05T11:36:02;3.30;99.90
2012;DHT22;1009;51.436;6.972;2022-12-05T11:38:29;3.30;99.90
2012;DHT22;1009;51.436;6.972;2022-12-05T11:41:14;3.40;99.90
2012;DHT22;1009;51.436;6.972;2022-12-05T11:44:00;3.30;99.90
2012;DHT22;1009;51.436;6.972;2022-12-05T11:46:35;3.20;99.90
2012;DHT22;1009;51.436;6.972;2022-12-05T11:49:18;3.30;99.90
2012;DHT22;1009;51.436;6.972;2022-12-05T11:51:54;3.20;99.90
2012;DHT22;1009;51.436;6.972;2022-12-05T11:54:45;3.20;99.90
2012;DHT22;1009;51.436;6.972;2022-12-05T11:57:19;3.20;99.90
2012;DHT22;1009;51.436;6.972;2022-12-05T12:00:08;3.20;99.90
2012;DHT22;1009;51.436;6.972;2022-12-05T12:05:51;3.20;99.90
2012;DHT22;1009;51.436;6.972;2022-12-05T12:08:23;3.20;99.90
2012;DHT22;1009;51.436;6.972;2022-12-05T12:11:00;3.10;99.90
2012;DHT22;1009;51.436;6.972;2022-12-05T12:13:45;3.10;99.90
2012;DHT22;1009;51.436;6.972;2022-12-05T12:16:20;3.20;99.90
2012;DHT22;1009;51.436;6.972;2022-12-05T12:19:14;3.30;99.90
2012;DHT22;1009;51.436;6.972;2022-12-05T12:21:59;3.20;99.90
2012;DHT22;1009;51.436;6.972;2022-12-05T12:24:36;3.30;99.90
2012;DHT22;1009;51.436;6.972;2022-12-05T12:27:12;3.30;99.90
2012;DHT22;1009;51.436;6.972;2022-12-05T12:29:49;3.20;99.90
2012;DHT22;1009;51.436;6.972;2022-12-05T12:32:28;3.10;99.90
2012;DHT22;1009;51.436;6.972;2022-12-05T12:35:22;3.00;99.90
2012;DHT22;1009;51.436;6.972;2022-12-05T12:38:01;3.10;99.90
2012;DHT22;1009;51.436;6.972;2022-12-05T12:40:35;3.00;99.90
2012;DHT22;1009;51.436;6.972;2022-12-05T12:43:17;3.00;99.90
2012;DHT22;1009;51.436;6.972;2022-12-05T12:46:10;3.00;99.90
2012;DHT22;1009;51.436;6.972;2022-12-05T12:48:53;3.00;99.90
2012;DHT22;1009;51.436;6.972;2022-12-05T12:51:24;3.00;99.90
2012;DHT22;1009;51.436;6.972;2022-12-05T12:54:00;2.90;99.90
2012;DHT22;1009;51.436;6.972;2022-12-05T12:56:36;3.00;99.90
2012;DHT22;1009;51.436;6.972;2022-12-05T12:59:20;2.90;99.90
2012;DHT22;1009;51.436;6.972;2022-12-05T13:01:56;2.90;99.90
2012;DHT22;1009;51.436;6.972;2022-12-05T13:04:28;3.00;99.90
2012;DHT22;1009;51.436;6.972;2022-12-05T13:07:02;3.00;99.90
2012;DHT22;1009;51.436;6.972;2022-12-05T13:09:34;3.00;99.90
2012;DHT22;1009;51.436;6.972;2022-12-05T13:12:06;3.00;99.90
2012;DHT22;1009;51.436;6.972;2022-12-05T13:14:34;3.00;99.90
2012;DHT22;1009;51.436;6.972;2022-12-05T13:17:04;3.00;99.90
2012;DHT22;1009;51.436;6.972;2022-12-05T13:19:39;3.00;99.90
2012;DHT22;1009;51.436;6.972;2022-12-05T13:22:07;2.90;99.90
2012;DHT22;1009;51.436;6.972;2022-12-05T13:24:34;3.00;99.90
2012;DHT22;1009;51.436;6.972;2022-12-05T13:27:04;3.00;99.90
2012;DHT22;1009;51.436;6.972;2022-12-05T13:29:34;3.10;99.90
2012;DHT22;1009;51.436;6.972;2022-12-05T13:32:02;3.00;99.90
2012;DHT22;1009;51.436;6.972;2022-12-05T13:34:42;3.00;99.90
2012;DHT22;1009;51.436;6.972;2022-12-05T13:37:16;3.00;99.90
2012;DHT22;1009;51.436;6.972;2022-12-05T13:40:02;3.00;99.90
2012;DHT22;1009;51.436;6.972;2022-12-05T13:42:47;3.10;99.90
2012;DHT22;1009;51.436;6.972;2022-12-05T13:45:24;3.10;99.90
2012;DHT22;1009;51.436;6.972;2022-12-05T13:47:57;3.10;99.90
2012;DHT22;1009;51.436;6.972;2022-12-05T13:50:33;3.10;99.90
2012;DHT22;1009;51.436;6.972;2022-12-05T13:53:04;3.10;99.90
2012;DHT22;1009;51.436;6.972;2022-12-05T13:55:34;3.20;99.90
2012;DHT22;1009;51.436;6.972;2022-12-05T13:58:02;3.10;99.90
2012;DHT22;1009;51.436;6.972;2022-12-05T14:00:33;3.10;99.90
2012;DHT22;1009;51.436;6.972;2022-12-05T14:03:04;3.00;99.90
2012;DHT22;1009;51.436;6.972;2022-12-05T14:05:40;2.80;99.90
2012;DHT22;1009;51.436;6.972;2022-12-05T14:11:10;2.80;99.90
2012;DHT22;1009;51.436;6.972;2022-12-05T14:13:39;2.70;99.90
2012;DHT22;1009;51.436;6.972;2022-12-05T14:19:52;2.80;99.90
2012;DHT22;1009;51.436;6.972;2022-12-05T14:22:57;2.70;99.90
2012;DHT22;1009;51.436;6.972;2022-12-05T14:25:37;2.70;99.90
2012;DHT22;1009;51.436;6.972;2022-12-05T14:28:14;2.70;99.90
2012;DHT22;1009;51.436;6.972;2022-12-05T14:30:50;2.80;99.90
2012;DHT22;1009;51.436;6.972;2022-12-05T14:33:22;2.80;99.90
2012;DHT22;1009;51.436;6.972;2022-12-05T14:35:50;2.80;99.90
2012;DHT22;1009;51.436;6.972;2022-12-05T14:38:26;2.80;99.90
2012;DHT22;1009;51.436;6.972;2022-12-05T14:40:54;2.70;99.90
2012;DHT22;1009;51.436;6.972;2022-12-05T14:43:28;2.80;99.90
2012;DHT22;1009;51.436;6.972;2022-12-05T14:45:58;2.80;99.90
2012;DHT22;1009;51.436;6.972;2022-12-05T14:48:29;2.80;99.90
2012;DHT22;1009;51.436;6.972;2022-12-05T14:50:58;2.80;99.90
2012;DHT22;1009;51.436;6.972;2022-12-05T14:53:30;2.80;99.90
2012;DHT22;1009;51.436;6.972;2022-12-05T14:56:17;2.80;99.90
2012;DHT22;1009;51.436;6.972;2022-12-05T14:58:54;2.80;99.90
2012;DHT22;1009;51.436;6.972;2022-12-05T15:01:26;2.80;99.90
2012;DHT22;1009;51.436;6.972;2022-12-05T15:04:04;2.80;99.90
2012;DHT22;1009;51.436;6.972;2022-12-05T15:06:33;2.80;99.90
2012;DHT22;1009;51.436;6.972;2022-12-05T15:09:05;2.80;99.90
2012;DHT22;1009;51.436;6.972;2022-12-05T15:11:33;2.90;99.90
2012;DHT22;1009;51.436;6.972;2022-12-05T15:14:11;2.90;99.90
2012;DHT22;1009;51.436;6.972;2022-12-05T15:16:44;2.90;99.90
2012;DHT22;1009;51.436;6.972;2022-12-05T15:19:16;2.80;99.90
2012;DHT22;1009;51.436;6.972;2022-12-05T15:21:45;2.70;99.90
2012;DHT22;1009;51.436;6.972;2022-12-05T15:24:16;2.80;99.90
2012;DHT22;1009;51.436;6.972;2022-12-05T15:26:45;2.90;99.90
2012;DHT22;1009;51.436;6.972;2022-12-05T15:29:15;2.90;99.90
2012;DHT22;1009;51.436;6.972;2022-12-05T15:31:44;2.80;99.90
2012;DHT22;1009;51.436;6.972;2022-12-05T15:34:15;2.90;99.90
2012;DHT22;1009;51.436;6.972;2022-12-05T15:36:48;2.90;99.90
2012;DHT22;1009;51.436;6.972;2022-12-05T15:39:21;2.90;99.90
2012;DHT22;1009;51.436;6.972;2022-12-05T15:41:51;2.80;99.90
2012;DHT22;1009;51.436;6.972;2022-12-05T15:44:18;2.90;99.90
2012;DHT22;1009;51.436;6.972;2022-12-05T15:46:50;2.80;99.90
2012;DHT22;1009;51.436;6.972;2022-12-05T15:49:22;2.80;99.90
2012;DHT22;1009;51.436;6.972;2022-12-05T15:51:51;2.70;99.90
2012;DHT22;1009;51.436;6.972;2022-12-05T15:54:26;2.70;99.90
2012;DHT22;1009;51.436;6.972;2022-12-05T15:56:57;2.70;99.90
2012;DHT22;1009;51.436;6.972;2022-12-05T15:59:27;2.70;99.90
2012;DHT22;1009;51.436;6.972;2022-12-05T16:02:02;2.80;99.90
2012;DHT22;1009;51.436;6.972;2022-12-05T16:04:33;2.90;99.90
2012;DHT22;1009;51.436;6.972;2022-12-05T16:07:05;2.90;99.90
2012;DHT22;1009;51.436;6.972;2022-12-05T16:09:38;2.80;99.90
2012;DHT22;1009;51.436;6.972;2022-12-05T16:12:16;2.70;99.90
2012;DHT22;1009;51.436;6.972;2022-12-05T16:14:49;2.80;99.90
2012;DHT22;1009;51.436;6.972;2022-12-05T16:17:16;2.80;99.90
2012;DHT22;1009;51.436;6.972;2022-12-05T16:19:45;2.80;99.90
2012;DHT22;1009;51.436;6.972;2022-12-05T16:22:20;2.70;99.90
2012;DHT22;1009;51.436;6.972;2022-12-05T16:24:53;2.60;99.90
2012;DHT22;1009;51.436;6.972;2022-12-05T16:27:23;2.70;99.90
2012;DHT22;1009;51.436;6.972;2022-12-05T16:30:06;2.70;99.90
2012;DHT22;1009;51.436;6.972;2022-12-05T16:32:34;2.70;99.90
2012;DHT22;1009;51.436;6.972;2022-12-05T16:35:01;2.70;99.90
2012;DHT22;1009;51.436;6.972;2022-12-05T16:37:29;2.70;99.90
2012;DHT22;1009;51.436;6.972;2022-12-05T16:39:57;2.70;99.90
2012;DHT22;1009;51.436;6.972;2022-12-05T16:42:25;2.70;99.90
2012;DHT22;1009;51.436;6.972;2022-12-05T16:44:54;2.70;99.90
2012;DHT22;1009;51.436;6.972;2022-12-05T16:47:56;2.70;99.90
2012;DHT22;1009;51.436;6.972;2022-12-05T16:50:28;2.70;99.90
2012;DHT22;1009;51.436;6.972;2022-12-05T16:53:21;2.70;99.90
2012;DHT22;1009;51.436;6.972;2022-12-05T16:55:55;2.70;99.90
2012;DHT22;1009;51.436;6.972;2022-12-05T16:58:25;2.80;99.90